首页
METAR-TAF:

METAR-TAF

机场 :

海地角, 海地

纬度: 19-43-59N, 经度: 72-11-41W, 海拔: 3米

当前天气观测

该预报发布于1小时和7分钟前的13:00 UTC
风速2节,风向多变
温度 24°C
湿度 74%
气压 1020 hPa
能見度: 9000

METAR: MTCH 111300Z VRB02KT 9000 NSC 24/19 Q1019 A3011

时间: 09:07 (14:07 UTC)

预报

该预报发布于2小时和37分钟前的11:30 UTC
预报有效从11日的 12点(UTC)到 12日的 12点(UTC)
风速2节,风向多变
能見度: 9000
少量云层高于2000英尺
成为
从 11日的 14点(UTC)到 11日的 18点(UTC)
风速12节,风向北转东北,有时为22节阵风
从 12日的 0200点(UTC)
风速12节,风向
能見度: 7000
成为
从 12日的 06点(UTC)到 12日的 10点(UTC)
风速2节,风向多变

TAF: MTCH 111130Z 1112/1212 VRB02KT 9000 FEW020 BECMG 1114/1118 02012G22KT FM120200 36012KT 7000 NSC BECMG 1206/1210 VRB02KT

超过4000个机场的气象观测和天气预报(METAR&TAF报告)。

可查询的气象台以黄色和红色小点在地图上表示。

将鼠标移到小点上方,可查看气象台名称。

然后点击查看天气观测和预报。

如需切换地图:点击带黑十字的绿色按钮放大地图;点击带横线的绿色按钮缩小地图;或者点击绿色箭头查看邻近地区的地图。


METAR-TAF: